createdAt,value
2022-12-08T00:00:31.927Z,2.89
2022-12-08T00:05:52.257Z,2.89
2022-12-08T00:10:53.919Z,2.91
2022-12-08T00:16:00.699Z,2.92
2022-12-08T00:21:02.855Z,2.94
2022-12-08T00:26:05.471Z,2.93
2022-12-08T00:31:08.744Z,2.88
2022-12-08T00:36:13.062Z,2.85
2022-12-08T00:41:17.515Z,2.81
2022-12-08T00:46:19.177Z,2.78
2022-12-08T00:51:20.881Z,2.77
2022-12-08T00:56:22.651Z,2.77
2022-12-08T01:01:24.438Z,2.75
2022-12-08T01:06:26.144Z,2.72
2022-12-08T01:11:28.766Z,2.72
2022-12-08T01:16:33.253Z,2.69
2022-12-08T01:21:34.932Z,2.63
2022-12-08T01:26:43.886Z,2.56
2022-12-08T01:31:45.598Z,2.47
2022-12-08T01:36:50.444Z,2.43
2022-12-08T01:41:52.117Z,2.40
2022-12-08T01:46:54.415Z,2.37
2022-12-08T01:52:09.994Z,2.32
2022-12-08T01:57:12.739Z,2.29
2022-12-08T02:02:15.257Z,2.32
2022-12-08T02:07:18.000Z,2.28
2022-12-08T02:12:19.676Z,2.23
2022-12-08T02:17:36.575Z,2.18
2022-12-08T02:22:50.835Z,2.18
2022-12-08T02:27:55.531Z,2.16
2022-12-08T02:33:38.853Z,2.16
2022-12-08T02:38:46.159Z,2.12
2022-12-08T02:43:49.409Z,2.18
2022-12-08T02:48:51.759Z,2.26
2022-12-08T02:53:53.462Z,2.32
2022-12-08T02:59:16.661Z,2.38
2022-12-08T03:04:31.276Z,2.41
2022-12-08T03:09:46.827Z,2.45
2022-12-08T03:14:53.026Z,2.46
2022-12-08T03:19:55.746Z,2.46
2022-12-08T03:24:57.862Z,2.45
2022-12-08T03:30:00.696Z,2.46
2022-12-08T03:35:05.795Z,2.47
2022-12-08T03:40:10.120Z,2.49
2022-12-08T03:45:12.173Z,2.52
2022-12-08T03:50:15.107Z,2.53
2022-12-08T03:55:17.337Z,2.59
2022-12-08T04:00:19.167Z,2.63
2022-12-08T04:05:20.811Z,2.65
2022-12-08T04:10:22.425Z,2.67
2022-12-08T04:15:24.140Z,2.68
2022-12-08T04:20:25.832Z,2.70
2022-12-08T04:25:27.856Z,2.70
2022-12-08T04:30:29.532Z,2.69
2022-12-08T04:35:31.645Z,2.66
2022-12-08T04:40:33.612Z,2.64
2022-12-08T04:45:35.436Z,2.62
2022-12-08T04:50:40.608Z,2.63
2022-12-08T04:55:44.234Z,2.64
2022-12-08T05:00:46.611Z,2.63
2022-12-08T05:05:48.272Z,2.62
2022-12-08T05:10:50.038Z,2.63
2022-12-08T05:15:51.808Z,2.59
2022-12-08T05:20:53.513Z,2.56
2022-12-08T05:25:55.366Z,2.49
2022-12-08T05:30:57.017Z,2.46
2022-12-08T05:35:58.653Z,2.41
2022-12-08T05:41:00.386Z,2.38
2022-12-08T05:46:02.532Z,2.34
2022-12-08T05:51:05.010Z,2.33
2022-12-08T05:56:06.981Z,2.34
2022-12-08T06:01:21.416Z,2.31
2022-12-08T06:06:23.073Z,2.29
2022-12-08T06:11:29.772Z,2.25
2022-12-08T06:16:31.535Z,2.23
2022-12-08T06:21:33.275Z,2.26
2022-12-08T06:26:36.129Z,2.24
2022-12-08T06:31:37.879Z,2.36
2022-12-08T06:36:39.553Z,2.45
2022-12-08T06:41:59.730Z,2.58
2022-12-08T06:47:01.368Z,2.65
2022-12-08T06:52:03.090Z,2.71
2022-12-08T06:57:04.719Z,2.71
2022-12-08T07:02:06.716Z,2.79
2022-12-08T07:07:08.441Z,2.82
2022-12-08T07:12:10.109Z,2.81
2022-12-08T07:17:12.358Z,2.83
2022-12-08T07:22:14.362Z,2.83
2022-12-08T07:27:16.004Z,2.80
2022-12-08T07:32:17.758Z,3.33
2022-12-08T07:37:19.480Z,3.51
2022-12-08T07:42:21.177Z,3.60
2022-12-08T07:47:22.861Z,3.51
2022-12-08T07:52:24.816Z,3.22
2022-12-08T07:57:26.530Z,3.27
2022-12-08T08:02:28.413Z,3.56
2022-12-08T08:07:31.306Z,3.20
2022-12-08T08:12:33.301Z,3.00
2022-12-08T08:17:36.912Z,2.88
2022-12-08T08:22:39.073Z,2.85
2022-12-08T08:27:42.408Z,2.81
2022-12-08T08:32:45.339Z,2.80
2022-12-08T08:37:49.446Z,2.80
2022-12-08T08:42:52.627Z,2.77
2022-12-08T08:47:54.265Z,2.76
2022-12-08T08:52:57.709Z,2.75
2022-12-08T08:57:59.349Z,2.76
2022-12-08T09:03:01.074Z,2.83
2022-12-08T09:08:02.872Z,2.89
2022-12-08T09:13:04.574Z,3.04
2022-12-08T09:18:12.441Z,3.38
2022-12-08T09:23:16.068Z,3.71
2022-12-08T09:28:17.696Z,3.95
2022-12-08T09:33:19.393Z,4.08
2022-12-08T09:38:21.126Z,4.08
2022-12-08T09:43:28.745Z,4.24
2022-12-08T09:48:34.581Z,4.35
2022-12-08T09:53:39.851Z,4.44
2022-12-08T09:58:58.037Z,4.59
2022-12-08T10:04:00.983Z,4.77
2022-12-08T10:09:02.625Z,4.82
2022-12-08T10:14:26.085Z,4.84
2022-12-08T10:24:37.378Z,5.31
2022-12-08T10:29:40.536Z,5.06
2022-12-08T10:35:01.797Z,5.04
2022-12-08T10:40:11.276Z,5.05
2022-12-08T10:45:24.196Z,5.01
2022-12-08T10:50:35.405Z,5.12
2022-12-08T10:55:46.429Z,5.15
2022-12-08T11:00:48.226Z,5.01
2022-12-08T11:05:50.053Z,5.01
2022-12-08T11:10:51.670Z,4.99
2022-12-08T11:15:57.186Z,5.06
2022-12-08T11:21:02.331Z,5.35
2022-12-08T11:26:18.378Z,5.49
2022-12-08T11:31:32.424Z,5.61
2022-12-08T11:36:37.656Z,5.62
2022-12-08T11:41:42.444Z,5.60
2022-12-08T11:46:50.867Z,5.60
2022-12-08T11:52:17.590Z,5.62
2022-12-08T11:57:21.168Z,5.85
2022-12-08T12:02:29.778Z,5.70
2022-12-08T12:07:57.595Z,5.65
2022-12-08T12:13:26.703Z,5.63
2022-12-08T12:18:35.893Z,5.68
2022-12-08T12:23:53.773Z,5.76
2022-12-08T12:28:59.013Z,5.71
2022-12-08T12:34:11.008Z,5.62
2022-12-08T12:39:13.669Z,5.63
2022-12-08T12:44:15.281Z,5.59
2022-12-08T12:49:43.904Z,5.52
2022-12-08T12:55:05.558Z,5.46
2022-12-08T13:00:10.096Z,5.54
2022-12-08T13:05:26.182Z,5.54
2022-12-08T13:10:30.751Z,5.32
2022-12-08T13:15:38.357Z,5.26
2022-12-08T13:20:42.789Z,5.22
2022-12-08T13:25:44.389Z,5.13
2022-12-08T13:31:26.447Z,5.25
2022-12-08T13:36:33.845Z,5.21
2022-12-08T13:41:41.865Z,5.17
2022-12-08T13:47:16.855Z,5.37
2022-12-08T13:53:49.043Z,5.24
2022-12-08T13:57:39.658Z,5.07
2022-12-08T14:02:49.434Z,5.14
2022-12-08T14:07:55.013Z,5.06
2022-12-08T14:13:03.100Z,5.24
2022-12-08T14:18:04.865Z,4.89
2022-12-08T14:23:08.235Z,4.80
2022-12-08T14:28:10.587Z,4.52
2022-12-08T14:33:15.122Z,4.34
2022-12-08T14:38:18.828Z,4.31
2022-12-08T14:43:21.165Z,4.41
2022-12-08T14:48:25.963Z,4.33
2022-12-08T14:53:31.963Z,4.27
2022-12-08T14:58:33.637Z,4.19
2022-12-08T15:03:36.566Z,4.02
2022-12-08T15:08:58.764Z,4.04
2022-12-08T15:14:01.352Z,3.98
2022-12-08T15:19:30.466Z,4.04
2022-12-08T15:24:32.419Z,3.80
2022-12-08T15:29:34.083Z,3.74
2022-12-08T15:34:37.188Z,3.61
2022-12-08T15:39:39.434Z,3.38
2022-12-08T15:44:41.738Z,3.52
2022-12-08T15:49:44.046Z,3.65
2022-12-08T15:54:45.783Z,3.68
2022-12-08T15:59:47.601Z,3.84
2022-12-08T16:10:20.702Z,3.76
2022-12-08T16:15:50.062Z,3.74
2022-12-08T16:21:08.092Z,3.69
2022-12-08T16:26:21.910Z,3.73
2022-12-08T16:31:28.613Z,3.94
2022-12-08T16:36:30.332Z,3.97
2022-12-08T16:41:50.524Z,3.87
2022-12-08T16:46:52.278Z,3.86
2022-12-08T16:51:54.123Z,3.82
2022-12-08T16:56:55.796Z,3.81
2022-12-08T17:01:57.532Z,3.92
2022-12-08T17:06:59.552Z,4.01
2022-12-08T17:12:04.058Z,3.96
2022-12-08T17:17:06.544Z,4.00
2022-12-08T17:22:08.291Z,3.99
2022-12-08T17:27:09.944Z,3.99
2022-12-08T17:32:11.846Z,3.77
2022-12-08T17:37:13.823Z,3.67
2022-12-08T17:42:15.715Z,3.68
2022-12-08T17:47:17.366Z,3.86
2022-12-08T17:52:19.064Z,3.76
2022-12-08T17:57:20.770Z,3.69
2022-12-08T18:02:22.658Z,3.74
2022-12-08T18:07:24.438Z,4.07
2022-12-08T18:12:26.076Z,3.84
2022-12-08T18:17:27.745Z,3.87
2022-12-08T18:22:29.449Z,3.94
2022-12-08T18:27:31.100Z,3.95
2022-12-08T18:32:33.182Z,4.02
2022-12-08T18:37:34.929Z,3.84
2022-12-08T18:42:36.761Z,3.79
2022-12-08T18:47:40.241Z,3.73
2022-12-08T18:52:42.353Z,3.83
2022-12-08T18:57:44.117Z,3.87
2022-12-08T19:02:46.036Z,3.96
2022-12-08T19:07:47.982Z,4.04
2022-12-08T19:12:51.267Z,4.02
2022-12-08T19:17:53.074Z,3.96
2022-12-08T19:22:55.286Z,3.93
2022-12-08T19:27:56.986Z,3.99
2022-12-08T19:32:58.778Z,3.92
2022-12-08T19:38:00.480Z,3.90
2022-12-08T19:43:20.822Z,3.86
2022-12-08T19:48:22.594Z,3.88
2022-12-08T19:53:24.634Z,3.93
2022-12-08T19:58:26.345Z,3.90
2022-12-08T20:03:28.120Z,3.97
2022-12-08T20:08:29.925Z,3.83
2022-12-08T20:13:47.806Z,3.79
2022-12-08T20:18:49.993Z,3.78
2022-12-08T20:23:51.752Z,3.70
2022-12-08T20:28:53.450Z,3.68
2022-12-08T20:33:55.595Z,3.61
2022-12-08T20:38:57.426Z,3.53
2022-12-08T20:43:59.084Z,3.45
2022-12-08T20:49:03.256Z,3.37
2022-12-08T20:54:05.002Z,3.24
2022-12-08T20:59:06.827Z,3.22
2022-12-08T21:04:12.348Z,3.07
2022-12-08T21:09:14.476Z,3.10
2022-12-08T21:14:16.220Z,3.10
2022-12-08T21:19:19.829Z,3.02
2022-12-08T21:24:21.662Z,2.97
2022-12-08T21:29:23.431Z,2.92
2022-12-08T21:34:26.327Z,2.87
2022-12-08T21:39:28.185Z,2.78
2022-12-08T21:44:30.073Z,2.76
2022-12-08T21:49:32.045Z,2.73
2022-12-08T21:54:33.817Z,2.66
2022-12-08T21:59:35.718Z,2.60
2022-12-08T22:04:37.673Z,2.55
2022-12-08T22:09:39.695Z,2.47
2022-12-08T22:14:41.570Z,2.50
2022-12-08T22:19:43.661Z,2.48
2022-12-08T22:24:45.542Z,2.50
2022-12-08T22:29:47.209Z,2.47
2022-12-08T22:34:49.942Z,2.46
2022-12-08T22:39:51.831Z,2.43
2022-12-08T22:44:53.443Z,2.46
2022-12-08T22:49:55.197Z,2.45
2022-12-08T22:54:56.839Z,2.47
2022-12-08T22:59:58.658Z,2.49
2022-12-08T23:05:00.550Z,2.47
2022-12-08T23:10:02.906Z,2.47
2022-12-08T23:15:05.730Z,2.50
2022-12-08T23:20:08.179Z,2.52
2022-12-08T23:25:10.322Z,2.53
2022-12-08T23:30:12.650Z,2.54
2022-12-08T23:35:14.756Z,2.51
2022-12-08T23:40:16.627Z,2.51
2022-12-08T23:45:18.395Z,2.52
2022-12-08T23:50:20.187Z,2.51
2022-12-08T23:55:21.884Z,2.53
